Latest Weather Observations for Cape Naturaliste

IDW60801

Issued at 7:05 am WST Thursday 27 November 2014 (issued every 30 minutes, with the page automatically refreshed every 10 minutes)

About weather observations | Map of weather stations | Latest weather observations for WA | Other Formats
Station Details ID: 009519 Name: CAPE NATURALISTE Lat: -33.54 Lon: 115.02 Height: 109.0 m
Data from the previous 72 hours. | See also: Recent months at Cape Naturaliste
Date/Time
WST
Temp
°C
App
Temp
°C
Dew
Point
Rel
Hum
%
Delta-T
°C
Wind Press
QNH
hPa
Press
MSL
hPa
Rain
since 9 am
mm
Dir
 
Spd
km/h
Gust
km/h
Spd
kts
Gust
kts
27/07:00am 19.1 16.2 15.0 77 2.4 ESE 24 30 13 16 1011.6 1011.4 2.6
27/06:30am 18.8 15.6 15.3 80 2.1 ESE 26 35 14 19 1011.5 1011.3 2.6
27/06:00am 18.5 15.6 15.2 81 1.9 ESE 24 30 13 16 1011.3 1011.1 2.6
27/05:30am 17.9 14.9 14.8 82 1.8 ESE 24 32 13 17 1011.0 1010.8 2.6
27/05:00am 18.0 14.6 14.7 81 1.9 ESE 26 32 14 17 1011.0 1010.8 2.6
27/04:30am 18.2 14.8 14.7 80 2.0 ESE 26 32 14 17 1010.8 1010.6 2.6
27/04:00am 18.4 15.1 14.9 80 2.0 ESE 26 33 14 18 1010.6 1010.4 2.6
27/03:30am 18.5 15.1 14.8 79 2.2 ESE 26 35 14 19 1010.6 1010.4 2.6
27/03:00am 18.6 14.9 14.9 79 2.2 ESE 28 35 15 19 1010.5 1010.2 2.6
27/02:30am 18.6 14.4 14.7 78 2.3 ESE 30 39 16 21 1010.3 1010.0 2.6
27/02:00am 18.5 13.7 14.6 78 2.3 ESE 33 44 18 24 1010.1 1009.8 2.6
27/01:30am 18.7 13.8 14.2 75 2.6 ESE 33 43 18 23 1010.0 1009.7 2.6
27/01:00am 19.1 14.6 13.9 72 3.0 ESE 30 41 16 22 1010.0 1009.7 2.6
27/12:30am 19.2 15.1 13.8 71 3.1 ESE 28 37 15 20 1010.0 1009.7 2.6
27/12:00am 19.0 14.4 13.6 71 3.1 ESE 30 39 16 21 1010.1 1009.8 2.6
 
Date/Time
WST
Temp
°C
App
Temp
°C
Dew
Point
Rel
Hum
%
Delta-T
°C
Wind Press
QNH
hPa
Press
MSL
hPa
Rain
since 9 am
mm
Dir
 
Spd
km/h
Gust
km/h
Spd
kts
Gust
kts
26/11:30pm 19.0 13.9 13.8 72 3.0 ESE 33 54 18 29 1009.8 1009.5 2.6
26/11:27pm 18.9 13.8 13.7 72 3.0 ESE 33 54 18 29 1009.7 1009.4 2.6
26/11:00pm 19.2 12.6 13.8 71 3.1 ESE 41 56 22 30 1009.3 1009.1 2.6
26/10:30pm 19.1 12.2 13.9 72 3.0 ESE 43 59 23 32 1009.3 1009.1 2.6
26/10:00pm 18.9 12.5 14.4 75 2.6 ESE 41 59 22 32 1010.3 1010.0 2.6
26/09:56pm 18.9 12.6 14.6 76 2.5 ESE 41 59 22 32 1010.4 1010.1 2.6
26/09:30pm 17.9 13.3 14.6 81 1.9 SE 32 44 17 24 1011.6 1011.4 2.6
26/09:00pm 17.6 13.7 14.3 81 1.9 SE 28 41 15 22 1012.5 1012.3 2.6
26/08:30pm 18.0 14.7 15.1 83 1.7 SSE 26 41 14 22 1012.3 1012.1 2.6
26/08:19pm 17.7 13.2 15.0 84 1.6 S 32 44 17 24 1012.0 1011.8 2.6
26/08:00pm 17.4 12.0 14.9 85 1.5 SSW 37 48 20 26 1012.8 1012.6 2.4
26/07:30pm 17.6 13.9 14.9 84 1.6 SSW 28 35 15 19 1013.9 1013.7 2.4
26/07:00pm 18.0 12.9 14.9 82 1.8 SSW 35 48 19 26 1013.0 1012.8 2.2
26/06:30pm 18.8 14.1 15.9 83 1.7 SW 35 46 19 25 1013.2 1013.0 2.2
26/06:00pm 18.7 14.3 15.6 82 1.8 SSW 33 43 18 23 1012.1 1011.9 2.2
26/05:30pm 18.8 16.8 15.5 81 2.0 SSW 20 32 11 17 1011.4 1011.2 2.0
26/05:00pm 19.5 18.2 15.8 79 2.2 SW 17 24 9 13 1011.2 1011.0 1.6
26/04:30pm 20.0 18.7 15.8 77 2.5 S 17 20 9 11 1010.2 1009.9 1.6
26/04:00pm 18.7 15.3 14.8 78 2.3 SE 26 39 14 21 1009.1 1008.9 1.6
26/03:30pm 19.0 15.3 15.1 78 2.3 ESE 28 39 15 21 1010.4 1010.1 1.0
26/03:00pm 18.9 15.8 14.6 76 2.5 ESE 24 30 13 16 1011.1 1010.9 0.8
26/02:30pm 19.4 17.0 14.4 73 2.9 S 20 26 11 14 1011.3 1011.1 0.6
26/02:00pm 19.4 18.5 13.6 69 3.3 SSE 11 17 6 9 1012.8 1012.6 0.2
26/01:30pm 20.9 20.0 13.8 64 4.1 S 11 19 6 10 1012.9 1012.7 0.0
26/01:00pm 22.5 18.8 11.6 50 6.1 E 22 28 12 15 1012.4 1012.2 0.0
26/12:30pm 23.8 19.3 11.5 46 7.0 E 26 32 14 17 1012.5 1012.3 0.0
26/12:00pm 24.1 18.8 11.1 44 7.3 ESE 30 39 16 21 1012.3 1012.1 0.0
26/11:30am 22.1 17.0 13.2 57 5.1 E 32 39 17 21 1012.7 1012.5 0.0
26/11:00am 21.0 15.4 12.2 57 5.0 E 33 43 18 23 1012.7 1012.5 0.0
26/10:30am 20.3 14.1 11.5 57 4.9 ESE 35 44 19 24 1012.8 1012.6 0.0
26/10:00am 20.8 15.2 12.0 57 4.9 E 33 41 18 22 1013.4 1013.2 0.0
26/09:30am 20.4 14.4 12.1 59 4.7 E 35 43 19 23 1013.4 1013.2 0.0
26/09:00am 19.1 12.7 12.1 64 3.9 E 37 44 20 24 1013.4 1013.2 0.0
26/08:30am 18.3 11.3 11.4 64 3.8 ESE 39 50 21 27 1013.6 1013.4 0.0
26/08:00am 18.1 10.7 11.2 64 3.8 E 41 48 22 26 1013.8 1013.6 0.0
26/07:30am 17.9 10.6 11.5 66 3.5 E 41 50 22 27 1013.9 1013.7 0.0
26/07:00am 17.0 9.6 11.1 68 3.2 ESE 41 54 22 29 1014.0 1013.8 0.0
26/06:30am 17.0 9.1 10.8 67 3.3 ESE 43 50 23 27 1014.1 1013.9 0.0
26/06:00am 16.6 8.8 11.1 70 3.0 ESE 43 52 23 28 1014.3 1014.1 0.0
26/05:30am 16.3 8.4 10.8 70 2.9 ESE 43 56 23 30 1014.1 1013.9 0.0
26/05:00am 16.4 8.2 10.5 68 3.1 E 44 57 24 31 1014.1 1013.9 0.0
26/04:30am 16.4 8.8 10.5 68 3.1 E 41 52 22 28 1013.9 1013.7 0.0
26/04:00am 16.4 9.1 10.3 67 3.2 E 39 48 21 26 1013.9 1013.7 0.0
26/03:30am 16.5 9.5 10.1 66 3.4 ESE 37 46 20 25 1013.8 1013.6 0.0
26/03:00am 16.5 9.4 9.7 64 3.6 ESE 37 46 20 25 1014.0 1013.8 0.0
26/02:30am 17.0 9.5 9.4 61 4.0 E 39 50 21 27 1014.1 1013.9 0.0
26/02:00am 17.2 10.0 9.1 59 4.2 ESE 37 46 20 25 1014.1 1013.9 0.0
26/01:30am 17.7 10.2 9.3 58 4.4 ESE 39 48 21 26 1014.3 1014.1 0.0
26/01:00am 18.0 11.4 9.9 59 4.3 ESE 35 50 19 27 1014.6 1014.4 0.0
26/12:30am 18.4 11.7 9.7 57 4.6 ESE 35 46 19 25 1014.8 1014.6 0.0
26/12:00am 18.3 12.3 10.7 61 4.1 ESE 33 48 18 26 1015.0 1014.8 0.0
 
Date/Time
WST
Temp
°C
App
Temp
°C
Dew
Point
Rel
Hum
%
Delta-T
°C
Wind Press
QNH
hPa
Press
MSL
hPa
Rain
since 9 am
mm
Dir
 
Spd
km/h
Gust
km/h
Spd
kts
Gust
kts
25/11:30pm 18.1 12.2 11.2 64 3.8 ESE 33 43 18 23 1015.3 1015.1 0.0
25/11:00pm 18.3 12.5 11.6 65 3.7 ESE 33 44 18 24 1015.5 1015.3 0.0
25/10:30pm 18.6 12.5 11.9 65 3.7 SE 35 48 19 26 1015.4 1015.2 0.0
25/10:00pm 19.1 12.1 12.4 65 3.8 SE 41 56 22 30 1015.5 1015.3 0.0
25/09:30pm 19.2 12.5 12.2 64 3.9 SE 39 56 21 30 1015.6 1015.4 0.0
25/09:03pm 19.5 13.2 12.3 63 4.0 SE 37 56 20 30 1015.4 1015.2 0.0
25/09:00pm 19.5 12.8 12.3 63 4.0 SE 39 56 21 30 1015.3 1015.1 0.0
25/08:30pm 19.7 13.4 12.2 62 4.2 SSE 37 50 20 27 1015.2 1015.0 0.0
25/08:00pm 20.0 13.4 11.5 58 4.7 SSE 37 50 20 27 1015.1 1014.9 0.0
25/07:30pm 20.3 14.4 11.0 55 5.1 SSE 33 46 18 25 1015.3 1015.1 0.0
25/07:00pm 20.9 15.2 11.0 53 5.5 SSE 32 46 17 25 1015.5 1015.3 0.0
25/06:30pm 21.8 16.0 10.9 50 6.0 SSE 32 43 17 23 1015.6 1015.4 0.0
25/06:00pm 23.8 19.2 11.2 45 7.1 S 26 33 14 18 1015.8 1015.6 0.0
25/05:30pm 25.0 19.9 10.5 40 8.1 S 28 37 15 20 1015.8 1015.6 0.0
25/05:00pm 27.0 22.5 10.2 35 9.4 SSE 24 33 13 18 1015.9 1015.7 0.0
25/04:30pm 28.3 24.7 10.5 33 10.1 SE 20 28 11 15 1016.1 1015.9 0.0
25/04:00pm 27.3 26.2 14.3 45 7.8 S 13 19 7 10 1016.5 1016.3 0.0
25/03:30pm 26.4 23.6 14.2 47 7.3 SSW 22 30 12 16 1016.7 1016.5 0.0
25/03:00pm 26.9 23.9 13.6 44 7.9 SSW 22 32 12 17 1017.1 1016.9 0.0
25/02:30pm 26.2 23.4 14.3 48 7.1 SW 22 30 12 16 1017.4 1017.2 0.0
25/02:00pm 24.6 21.7 14.1 52 6.2 SW 22 28 12 15 1017.7 1017.5 0.0
25/01:30pm 24.5 21.5 13.7 51 6.4 SW 22 32 12 17 1018.1 1017.9 0.0
25/01:00pm 24.2 21.6 13.7 52 6.2 SW 20 28 11 15 1018.6 1018.5 0.0
25/12:30pm 25.4 23.0 13.9 49 6.8 SSW 19 28 10 15 1019.2 1019.0 0.0
25/12:00pm 25.0 23.3 13.5 48 6.7 SW 15 24 8 13 1019.4 1019.2 0.0
25/11:30am 24.9 20.1 8.8 36 8.7 ESE 24 32 13 17 1019.5 1019.3 0.0
25/11:00am 23.8 19.1 9.4 40 7.8 E 24 33 13 18 1019.7 1019.5 0.0
25/10:30am 22.5 16.7 9.3 43 7.1 E 30 35 16 19 1020.1 1019.9 0.0
25/10:00am 22.3 16.8 10.5 47 6.5 E 30 39 16 21 1020.3 1020.1 0.0
25/09:30am 21.4 15.7 9.9 48 6.2 E 30 39 16 21 1020.5 1020.3 0.0
25/09:00am 19.3 13.1 10.0 55 5.0 ESE 33 43 18 23 1020.6 1020.4 0.0
25/08:30am 18.3 12.2 9.6 57 4.6 ESE 32 43 17 23 1020.7 1020.5 0.0
25/08:00am 17.3 11.0 9.7 61 4.0 ESE 33 43 18 23 1020.7 1020.5 0.0
25/07:30am 16.2 10.0 9.4 64 3.5 ESE 32 44 17 24 1020.6 1020.4 0.0
25/07:00am 14.8 8.2 8.5 66 3.2 ESE 33 43 18 23 1020.4 1020.2 0.0
25/06:30am 13.3 6.7 7.7 69 2.8 ESE 32 41 17 22 1020.2 1020.0 0.0
25/06:00am 12.7 6.0 7.4 70 2.6 ESE 32 41 17 22 1020.1 1019.9 0.0
25/05:30am 11.9 4.9 7.0 72 2.4 ESE 33 43 18 23 1020.2 1020.0 0.0
25/05:00am 11.5 4.5 6.8 73 2.2 ESE 33 43 18 23 1020.0 1019.8 0.0
25/04:30am 11.5 4.5 6.8 73 2.2 SE 33 44 18 24 1019.8 1019.6 0.0
25/04:00am 11.5 4.5 7.0 74 2.2 SE 33 43 18 23 1019.7 1019.5 0.0
25/03:30am 11.6 4.2 6.9 73 2.3 SE 35 46 19 25 1019.7 1019.5 0.0
25/03:00am 11.8 4.8 6.9 72 2.3 SE 33 43 18 23 1019.7 1019.5 0.0
25/02:30am 11.9 4.9 7.0 72 2.4 SE 33 43 18 23 1019.7 1019.5 0.0
25/02:00am 12.0 5.0 6.9 71 2.4 SE 33 44 18 24 1019.9 1019.7 0.0
25/01:30am 12.4 5.1 7.3 71 2.5 SE 35 50 19 27 1020.1 1019.9 0.0
25/01:00am 12.4 5.6 7.1 70 2.6 SE 32 43 17 23 1020.4 1020.2 0.0
25/12:30am 12.7 5.4 7.4 70 2.6 SE 35 48 19 26 1020.5 1020.3 0.0
25/12:15am 12.7 5.8 7.4 70 2.6 SE 33 52 18 28 1020.6 1020.4 0.0
25/12:00am 12.8 6.0 7.5 70 2.6 SE 33 44 18 24 1020.8 1020.6 0.0
 
Date/Time
WST
Temp
°C
App
Temp
°C
Dew
Point
Rel
Hum
%
Delta-T
°C
Wind Press
QNH
hPa
Press
MSL
hPa
Rain
since 9 am
mm
Dir
 
Spd
km/h
Gust
km/h
Spd
kts
Gust
kts
24/11:30pm 13.0 6.2 7.7 70 2.6 SE 33 46 18 25 1021.0 1020.8 0.0
24/11:00pm 13.1 5.9 7.5 69 2.7 SE 35 48 19 26 1021.0 1020.8 0.0
24/10:30pm 13.6 6.4 7.8 68 2.9 SE 35 46 19 25 1021.0 1020.8 0.0
24/10:00pm 13.7 6.9 7.9 68 2.9 SE 33 44 18 24 1021.2 1021.0 0.0
24/09:30pm 14.0 7.5 8.0 67 3.0 SE 32 43 17 23 1021.2 1021.0 0.0
24/09:00pm 14.3 7.6 8.3 67 3.0 SSE 33 50 18 27 1021.0 1020.8 0.0
24/08:50pm 14.2 7.7 8.2 67 3.0 SSE 32 50 17 27 1020.9 1020.7 0.0
24/08:30pm 14.1 7.6 8.1 67 3.0 SSE 32 44 17 24 1020.9 1020.7 0.0
24/08:00pm 14.1 8.7 7.9 66 3.1 S 26 35 14 19 1021.1 1020.9 0.0
24/07:30pm 14.5 10.2 7.8 64 3.3 S 20 32 11 17 1021.3 1021.1 0.0
24/07:00pm 15.6 11.0 8.1 61 3.8 S 22 33 12 18 1020.9 1020.7 0.0
24/06:30pm 16.8 11.1 8.2 57 4.4 S 28 37 15 20 1020.8 1020.6 0.0
24/06:00pm 18.1 12.5 8.7 54 4.9 S 28 41 15 22 1020.6 1020.4 0.0
24/05:30pm 19.4 15.5 9.6 53 5.2 S 20 30 11 16 1020.4 1020.2 0.0
24/05:00pm 19.1 13.0 11.9 63 4.0 SSW 35 48 19 26 1020.3 1020.1 0.0
24/04:30pm 19.2 11.8 11.3 60 4.3 SSW 41 54 22 29 1020.2 1020.0 0.0
24/04:00pm 19.2 12.2 11.3 60 4.3 SSW 39 56 21 30 1020.3 1020.1 0.0
24/03:30pm 18.9 11.7 10.5 58 4.5 SSW 39 50 21 27 1020.6 1020.4 0.0
24/03:00pm 19.0 12.5 10.3 57 4.7 SSW 35 44 19 24 1021.1 1020.9 0.0
24/02:30pm 19.8 13.8 10.2 54 5.2 SW 32 43 17 23 1021.2 1021.0 0.0
24/02:00pm 19.5 13.7 9.4 52 5.4 SW 30 37 16 20 1021.5 1021.3 0.0
24/01:30pm 20.5 15.5 9.7 50 5.8 SW 26 33 14 18 1021.8 1021.6 0.0
24/01:00pm 20.1 15.1 8.1 46 6.2 SW 24 32 13 17 1022.2 1022.0 0.0
24/12:30pm 20.7 16.5 8.4 45 6.5 WSW 20 30 11 16 1022.5 1022.3 0.0
24/12:00pm 20.1 15.6 7.1 43 6.6 WSW 20 28 11 15 1022.6 1022.4 0.0
24/11:30am 20.4 17.3 7.1 42 6.8 SSW 13 20 7 11 1022.7 1022.5 0.0
24/11:00am 19.7 15.1 6.4 42 6.7 ENE 20 26 11 14 1022.9 1022.7 0.0
24/10:30am 18.8 14.1 6.0 43 6.3 E 20 28 11 15 1023.0 1022.8 0.0
24/10:00am 17.8 12.6 5.4 44 6.0 E 22 30 12 16 1023.3 1023.1 0.0
24/09:30am 17.8 13.0 5.7 45 5.9 E 20 30 11 16 1023.5 1023.3 0.0
24/09:00am 17.4 12.7 6.0 47 5.6 E 20 30 11 16 1023.7 1023.5 0.0
24/08:30am 16.6 11.7 4.9 46 5.6 ESE 20 28 11 15 1024.0 1023.8 0.0
24/08:00am 16.4 11.8 5.4 48 5.3 ESE 19 26 10 14 1024.1 1023.9 0.0
24/07:30am 15.2 10.5 5.1 51 4.8 SE 19 28 10 15 1023.9 1023.7 0.0

Other Formats:

Comma delimited format used in spreadsheet applications
http://www.bom.gov.au/fwo/IDW60801/IDW60801.94600.axf

JavaScript Object Notation format (JSON) in row-major order
http://www.bom.gov.au/fwo/IDW60801/IDW60801.94600.json